createdAt,value
2019-04-16T00:01:15.014Z,7.58
2019-04-16T00:03:46.490Z,7.63
2019-04-16T00:06:33.883Z,7.63
2019-04-16T00:09:20.117Z,7.58
2019-04-16T00:11:53.772Z,7.52
2019-04-16T00:14:25.109Z,7.38
2019-04-16T00:16:54.535Z,7.33
2019-04-16T00:19:23.975Z,7.19
2019-04-16T00:22:00.825Z,7.09
2019-04-16T00:24:31.910Z,7.12
2019-04-16T00:27:01.689Z,7.08
2019-04-16T00:29:33.020Z,7.05
2019-04-16T00:32:02.687Z,7.00
2019-04-16T00:34:33.811Z,6.94
2019-04-16T00:37:03.319Z,6.80
2019-04-16T00:39:32.769Z,6.83
2019-04-16T00:42:02.507Z,6.78
2019-04-16T00:44:31.944Z,6.68
2019-04-16T00:47:01.387Z,6.70
2019-04-16T00:49:30.822Z,6.72
2019-04-16T00:52:00.525Z,6.67
2019-04-16T00:54:29.953Z,6.66
2019-04-16T00:56:59.737Z,6.60
2019-04-16T00:59:29.453Z,6.56
2019-04-16T01:01:59.272Z,6.49
2019-04-16T01:04:28.965Z,6.46
2019-04-16T01:06:58.410Z,6.49
2019-04-16T01:09:27.839Z,6.40
2019-04-16T01:11:57.374Z,6.41
2019-04-16T01:14:27.487Z,6.37
2019-04-16T01:16:57.255Z,6.36
2019-04-16T01:19:26.933Z,6.25
2019-04-16T01:21:56.384Z,6.24
2019-04-16T01:24:26.139Z,6.26
2019-04-16T01:26:58.205Z,6.29
2019-04-16T01:29:27.285Z,6.21
2019-04-16T01:32:01.601Z,6.17
2019-04-16T01:34:32.677Z,6.15
2019-04-16T01:37:07.635Z,6.12
2019-04-16T01:39:41.892Z,5.99
2019-04-16T01:42:11.405Z,5.81
2019-04-16T01:44:40.845Z,5.73
2019-04-16T01:47:10.404Z,5.66
2019-04-16T01:49:42.064Z,5.56
2019-04-16T01:52:10.965Z,5.64
2019-04-16T01:54:40.403Z,5.73
2019-04-16T01:57:10.090Z,5.71
2019-04-16T01:59:39.866Z,5.68
2019-04-16T02:02:14.339Z,5.74
2019-04-16T02:04:40.976Z,5.69
2019-04-16T02:07:10.656Z,5.72
2019-04-16T02:09:40.326Z,5.80
2019-04-16T02:12:12.775Z,5.76
2019-04-16T02:14:40.925Z,5.80
2019-04-16T02:17:10.626Z,5.86
2019-04-16T02:19:40.311Z,5.78
2019-04-16T02:22:12.635Z,5.76
2019-04-16T02:24:40.915Z,5.81
2019-04-16T02:27:10.345Z,5.85
2019-04-16T02:29:39.792Z,5.84
2019-04-16T02:32:09.832Z,5.88
2019-04-16T02:34:39.452Z,5.90
2019-04-16T02:37:08.959Z,5.79
2019-04-16T02:39:53.092Z,5.82
2019-04-16T02:42:10.071Z,5.73
2019-04-16T02:44:39.568Z,5.66
2019-04-16T02:47:09.318Z,5.54
2019-04-16T02:49:38.834Z,5.43
2019-04-16T02:52:17.313Z,5.44
2019-04-16T02:54:48.831Z,5.46
2019-04-16T02:57:31.957Z,5.47
2019-04-16T03:00:04.761Z,5.37
2019-04-16T03:02:45.194Z,5.30
2019-04-16T03:05:16.266Z,5.27
2019-04-16T03:07:46.021Z,5.18
2019-04-16T03:10:15.474Z,5.07
2019-04-16T03:12:45.156Z,5.09
2019-04-16T03:15:16.222Z,5.09
2019-04-16T03:17:46.342Z,4.94
2019-04-16T03:20:20.882Z,5.04
2019-04-16T03:22:51.800Z,5.03
2019-04-16T03:25:21.235Z,4.93
2019-04-16T03:27:51.443Z,4.94
2019-04-16T03:30:21.840Z,4.88
2019-04-16T03:32:51.929Z,4.79
2019-04-16T03:35:25.462Z,4.75
2019-04-16T03:37:52.671Z,4.76
2019-04-16T03:40:25.554Z,4.66
2019-04-16T03:42:53.275Z,4.63
2019-04-16T03:45:22.705Z,4.60
2019-04-16T03:47:52.500Z,4.55
2019-04-16T03:50:21.924Z,4.56
2019-04-16T03:52:51.355Z,4.52
2019-04-16T03:55:25.413Z,4.48
2019-04-16T03:57:52.240Z,4.46
2019-04-16T04:00:21.743Z,4.34
2019-04-16T04:02:54.274Z,4.35
2019-04-16T04:05:22.356Z,4.31
2019-04-16T04:07:54.989Z,4.30
2019-04-16T04:10:30.529Z,4.33
2019-04-16T04:12:54.190Z,4.36
2019-04-16T04:15:26.467Z,4.39
2019-04-16T04:17:55.415Z,4.26
2019-04-16T04:20:25.130Z,4.25
2019-04-16T04:22:57.064Z,4.33
2019-04-16T04:25:26.070Z,4.37
2019-04-16T04:27:55.887Z,4.33
2019-04-16T04:30:28.813Z,4.31
2019-04-16T04:32:57.278Z,4.22
2019-04-16T04:35:26.730Z,4.24
2019-04-16T04:37:56.454Z,4.33
2019-04-16T04:40:25.938Z,4.32
2019-04-16T04:42:57.685Z,4.42
2019-04-16T04:45:27.124Z,4.42
2019-04-16T04:47:56.831Z,4.41
2019-04-16T04:50:26.541Z,4.42
2019-04-16T04:52:56.248Z,4.40
2019-04-16T04:55:26.940Z,4.45
2019-04-16T04:57:56.793Z,4.47
2019-04-16T05:00:26.235Z,4.46
2019-04-16T05:02:55.670Z,4.43
2019-04-16T05:05:25.861Z,4.42
2019-04-16T05:07:59.653Z,4.40
2019-04-16T05:10:26.738Z,4.38
2019-04-16T05:12:56.482Z,4.41
2019-04-16T05:15:26.375Z,4.50
2019-04-16T05:17:57.640Z,4.57
2019-04-16T05:20:29.805Z,4.72
2019-04-16T05:22:58.506Z,4.78
2019-04-16T05:25:33.016Z,4.77
2019-04-16T05:27:59.347Z,4.80
2019-04-16T05:30:28.787Z,4.80
2019-04-16T05:32:58.225Z,4.84
2019-04-16T05:35:27.670Z,4.91
2019-04-16T05:37:57.366Z,4.90
2019-04-16T05:40:28.032Z,4.96
2019-04-16T05:42:58.910Z,5.02
2019-04-16T05:45:29.428Z,5.07
2019-04-16T05:47:58.859Z,5.09
2019-04-16T05:50:29.803Z,5.16
2019-04-16T05:52:59.490Z,5.15
2019-04-16T05:55:31.352Z,5.17
2019-04-16T05:58:00.842Z,5.26
2019-04-16T06:00:32.220Z,5.33
2019-04-16T06:03:01.926Z,5.37
2019-04-16T06:05:31.375Z,5.49
2019-04-16T06:08:10.865Z,5.57
2019-04-16T06:10:40.788Z,5.62
2019-04-16T06:13:12.886Z,5.74
2019-04-16T06:15:44.604Z,5.75
2019-04-16T06:18:18.031Z,5.88
2019-04-16T06:20:49.427Z,5.91
2019-04-16T06:23:21.290Z,5.94
2019-04-16T06:25:52.656Z,6.07
2019-04-16T06:28:24.475Z,6.13
2019-04-16T06:31:05.619Z,6.17
2019-04-16T06:33:44.302Z,6.23
2019-04-16T06:36:24.827Z,6.31
2019-04-16T06:39:10.797Z,6.30
2019-04-16T06:41:57.468Z,6.41
2019-04-16T06:44:29.855Z,6.43
2019-04-16T06:47:10.610Z,6.52
2019-04-16T06:49:41.927Z,6.62
2019-04-16T06:52:29.280Z,6.67
2019-04-16T06:55:12.406Z,6.68
2019-04-16T06:57:52.224Z,6.75
2019-04-16T07:00:33.867Z,6.85
2019-04-16T07:03:18.142Z,6.91
2019-04-16T07:06:04.028Z,6.97
2019-04-16T07:08:50.686Z,7.07
2019-04-16T07:11:21.835Z,7.14
2019-04-16T07:13:51.534Z,7.18
2019-04-16T07:16:20.989Z,7.22
2019-04-16T07:18:50.435Z,7.26
2019-04-16T07:21:19.867Z,7.33
2019-04-16T07:23:49.406Z,7.39
2019-04-16T07:26:19.389Z,7.45
2019-04-16T07:28:58.555Z,7.48
2019-04-16T07:31:43.608Z,7.62
2019-04-16T07:34:32.935Z,7.66
2019-04-16T07:37:17.380Z,7.73
2019-04-16T07:40:09.998Z,7.79
2019-04-16T07:42:57.956Z,7.81
2019-04-16T07:45:43.847Z,7.92
2019-04-16T07:48:33.134Z,8.04
2019-04-16T07:51:20.509Z,8.11
2019-04-16T07:53:54.427Z,8.39
2019-04-16T07:56:28.166Z,8.46
2019-04-16T07:59:00.612Z,8.44
2019-04-16T08:01:29.117Z,8.83
2019-04-16T08:04:01.018Z,9.02
2019-04-16T08:06:30.067Z,8.97
2019-04-16T08:08:59.512Z,9.03
2019-04-16T08:11:29.278Z,9.37
2019-04-16T08:13:58.738Z,9.89
2019-04-16T08:16:28.171Z,9.83
2019-04-16T08:18:57.635Z,9.58
2019-04-16T08:21:27.075Z,9.62
2019-04-16T08:24:00.878Z,9.77
2019-04-16T08:26:30.326Z,9.79
2019-04-16T08:28:59.769Z,9.87
2019-04-16T08:31:30.200Z,9.83
2019-04-16T08:33:59.887Z,9.75
2019-04-16T08:36:29.320Z,9.75
2019-04-16T08:38:58.767Z,9.76
2019-04-16T08:41:28.218Z,9.85
2019-04-16T08:43:59.734Z,9.90
2019-04-16T08:46:29.109Z,9.90
2019-04-16T08:48:58.609Z,9.91
2019-04-16T08:51:30.923Z,9.95
2019-04-16T08:53:59.314Z,10.00
2019-04-16T08:56:28.767Z,10.05
2019-04-16T08:59:00.885Z,10.09
2019-04-16T09:01:31.324Z,10.18
2019-04-16T09:04:02.433Z,10.19
2019-04-16T09:06:32.006Z,10.29
2019-04-16T09:09:12.623Z,10.37
2019-04-16T09:11:35.600Z,10.48
2019-04-16T09:14:06.860Z,10.48
2019-04-16T09:16:43.706Z,10.54
2019-04-16T09:19:15.083Z,10.66
2019-04-16T09:21:44.772Z,10.75
2019-04-16T09:24:21.893Z,10.82
2019-04-16T09:26:56.482Z,10.91
2019-04-16T09:29:44.028Z,10.98
2019-04-16T09:32:20.726Z,11.02
2019-04-16T09:35:10.734Z,11.07
2019-04-16T09:37:47.555Z,11.21
2019-04-16T09:40:22.376Z,11.40
2019-04-16T09:42:52.062Z,11.58
2019-04-16T09:45:24.386Z,12.02
2019-04-16T09:47:53.047Z,12.09
2019-04-16T09:50:22.644Z,12.46
2019-04-16T09:52:55.224Z,12.54
2019-04-16T09:55:23.923Z,12.55
2019-04-16T09:57:53.364Z,13.15
2019-04-16T10:00:24.870Z,13.47
2019-04-16T10:02:55.300Z,13.60
2019-04-16T10:05:26.538Z,13.78
2019-04-16T10:07:57.035Z,13.80
2019-04-16T10:10:27.857Z,13.57
2019-04-16T10:12:58.145Z,13.69
2019-04-16T10:15:27.621Z,13.77
2019-04-16T10:17:58.531Z,13.80
2019-04-16T10:20:28.515Z,13.90
2019-04-16T10:23:00.004Z,14.10
2019-04-16T10:25:29.525Z,14.07
2019-04-16T10:28:01.991Z,14.09
2019-04-16T10:30:34.152Z,14.02
2019-04-16T10:33:03.557Z,14.12
2019-04-16T10:35:33.007Z,14.22
2019-04-16T10:38:04.460Z,14.18
2019-04-16T10:40:35.546Z,14.22
2019-04-16T10:43:22.641Z,14.34
2019-04-16T10:45:57.598Z,14.66
2019-04-16T10:48:30.738Z,14.88
2019-04-16T10:51:15.560Z,14.96
2019-04-16T10:53:59.526Z,14.97
2019-04-16T10:56:31.712Z,15.67
2019-04-16T10:59:11.414Z,15.74
2019-04-16T11:01:42.495Z,15.82
2019-04-16T11:04:17.517Z,15.80
2019-04-16T11:06:48.621Z,15.62
2019-04-16T11:09:18.043Z,15.76
2019-04-16T11:11:47.518Z,16.22
2019-04-16T11:14:16.970Z,16.28
2019-04-16T11:16:48.271Z,16.49
2019-04-16T11:19:18.139Z,16.48
2019-04-16T11:21:47.576Z,16.42
2019-04-16T11:24:20.270Z,16.34
2019-04-16T11:26:48.199Z,16.13
2019-04-16T11:29:17.639Z,16.33
2019-04-16T11:31:47.116Z,16.62
2019-04-16T11:34:17.597Z,16.54
2019-04-16T11:36:47.300Z,16.50
2019-04-16T11:39:16.776Z,16.59
2019-04-16T11:41:46.206Z,16.74
2019-04-16T11:44:17.313Z,16.92
2019-04-16T11:46:46.963Z,16.98
2019-04-16T11:49:16.731Z,16.99
2019-04-16T11:51:46.494Z,17.16
2019-04-16T11:54:16.215Z,17.18
2019-04-16T11:56:46.002Z,17.55
2019-04-16T11:59:15.753Z,17.99
2019-04-16T12:01:47.714Z,17.96
2019-04-16T12:04:24.362Z,17.70
2019-04-16T12:07:11.978Z,18.20
2019-04-16T12:09:47.161Z,18.55
2019-04-16T12:12:18.219Z,18.54
2019-04-16T12:14:53.505Z,18.27
2019-04-16T12:17:30.367Z,18.01
2019-04-16T12:20:01.508Z,17.97
2019-04-16T12:22:32.911Z,17.80
2019-04-16T12:25:07.764Z,17.75
2019-04-16T12:27:48.989Z,17.44
2019-04-16T12:30:36.194Z,17.48
2019-04-16T12:33:22.700Z,17.68
2019-04-16T12:35:51.935Z,17.61
2019-04-16T12:38:29.253Z,17.69
2019-04-16T12:41:04.365Z,17.73
2019-04-16T12:43:38.247Z,17.70
2019-04-16T12:46:10.027Z,17.59
2019-04-16T12:48:57.597Z,17.64
2019-04-16T12:51:39.822Z,17.55
2019-04-16T12:54:25.567Z,17.45
2019-04-16T12:57:16.190Z,17.46
2019-04-16T12:59:58.356Z,17.49
2019-04-16T13:02:29.744Z,17.68
2019-04-16T13:05:09.822Z,17.36
2019-04-16T13:07:40.932Z,17.13
2019-04-16T13:10:14.578Z,17.15
2019-04-16T13:12:51.159Z,17.14
2019-04-16T13:15:28.009Z,17.10
2019-04-16T13:18:04.631Z,16.96
2019-04-16T13:20:38.466Z,17.00
2019-04-16T13:23:15.231Z,16.81
2019-04-16T13:25:56.114Z,16.73
2019-04-16T13:28:25.925Z,16.52
2019-04-16T13:30:55.357Z,16.33
2019-04-16T13:33:24.813Z,16.29
2019-04-16T13:35:54.259Z,16.42
2019-04-16T13:38:25.687Z,16.36
2019-04-16T13:40:55.482Z,16.38
2019-04-16T13:43:26.805Z,16.40
2019-04-16T13:45:58.163Z,16.41
2019-04-16T13:48:29.367Z,16.39
2019-04-16T13:51:00.778Z,16.38
2019-04-16T13:53:43.785Z,16.42
2019-04-16T13:56:18.499Z,16.50
2019-04-16T13:58:47.952Z,16.54
2019-04-16T14:01:19.034Z,16.60
2019-04-16T14:03:48.770Z,16.77
2019-04-16T14:06:18.303Z,16.72
2019-04-16T14:08:47.755Z,16.76
2019-04-16T14:11:19.682Z,16.84
2019-04-16T14:13:50.150Z,16.95
2019-04-16T14:16:19.542Z,16.95
2019-04-16T14:18:49.233Z,17.13
2019-04-16T14:21:19.093Z,17.17
2019-04-16T14:23:49.823Z,17.31
2019-04-16T14:26:19.275Z,17.43
2019-04-16T14:28:52.243Z,17.47
2019-04-16T14:31:22.127Z,17.41
2019-04-16T14:33:59.181Z,17.28
2019-04-16T14:36:28.981Z,17.30
2019-04-16T14:39:06.805Z,17.22
2019-04-16T14:41:34.579Z,16.99
2019-04-16T14:44:05.671Z,16.90
2019-04-16T14:46:35.187Z,16.77
2019-04-16T14:49:04.636Z,16.81
2019-04-16T14:51:34.351Z,16.69
2019-04-16T14:54:05.697Z,16.67
2019-04-16T14:56:39.179Z,16.56
2019-04-16T14:59:32.979Z,16.54
2019-04-16T15:02:04.102Z,17.02
2019-04-16T15:04:35.192Z,16.96
2019-04-16T15:07:12.435Z,16.91
2019-04-16T15:09:43.871Z,16.92
2019-04-16T15:12:13.081Z,16.80
2019-04-16T15:14:51.208Z,16.70
2019-04-16T15:17:22.318Z,16.66
2019-04-16T15:19:53.485Z,16.49
2019-04-16T15:22:27.224Z,16.35
2019-04-16T15:25:14.560Z,16.33
2019-04-16T15:27:49.238Z,16.21
2019-04-16T15:30:28.313Z,16.14
2019-04-16T15:33:13.906Z,16.04
2019-04-16T15:36:00.247Z,16.05
2019-04-16T15:38:37.538Z,16.10
2019-04-16T15:41:24.937Z,16.06
2019-04-16T15:44:11.756Z,16.02
2019-04-16T15:46:59.284Z,15.89
2019-04-16T15:49:45.380Z,15.82
2019-04-16T15:52:29.822Z,15.76
2019-04-16T15:55:15.984Z,15.66
2019-04-16T15:57:51.352Z,15.61
2019-04-16T16:00:28.641Z,15.55
2019-04-16T16:03:04.016Z,15.53
2019-04-16T16:05:35.515Z,15.49
2019-04-16T16:08:15.596Z,15.35
2019-04-16T16:10:47.612Z,15.17
2019-04-16T16:13:17.307Z,15.10
2019-04-16T16:15:46.983Z,15.02
2019-04-16T16:18:16.427Z,14.89
2019-04-16T16:20:45.886Z,14.77
2019-04-16T16:23:15.581Z,14.72
2019-04-16T16:25:45.310Z,14.60
2019-04-16T16:28:14.747Z,14.55
2019-04-16T16:30:44.534Z,14.50
2019-04-16T16:33:13.977Z,14.49
2019-04-16T16:35:57.063Z,14.49
2019-04-16T16:38:15.169Z,14.46
2019-04-16T16:40:49.414Z,14.46
2019-04-16T16:43:16.327Z,14.48
2019-04-16T16:46:04.573Z,14.41
2019-04-16T16:48:34.625Z,14.39
2019-04-16T16:51:04.148Z,14.39
2019-04-16T16:53:37.972Z,14.32
2019-04-16T16:56:24.418Z,14.28
2019-04-16T16:58:59.411Z,14.26
2019-04-16T17:01:49.169Z,14.15
2019-04-16T17:04:20.329Z,14.11
2019-04-16T17:06:50.070Z,14.14
2019-04-16T17:09:21.226Z,14.06
2019-04-16T17:11:51.018Z,13.93
2019-04-16T17:14:20.457Z,13.91
2019-04-16T17:16:49.913Z,13.88
2019-04-16T17:19:19.627Z,13.88
2019-04-16T17:21:49.341Z,13.84
2019-04-16T17:24:19.112Z,13.80
2019-04-16T17:26:49.909Z,13.79
2019-04-16T17:29:20.003Z,13.79
2019-04-16T17:31:50.339Z,13.79
2019-04-16T17:34:20.139Z,13.77
2019-04-16T17:36:49.583Z,13.83
2019-04-16T17:39:20.990Z,13.86
2019-04-16T17:42:03.977Z,13.86
2019-04-16T17:44:33.447Z,13.84
2019-04-16T17:47:10.606Z,13.81
2019-04-16T17:49:53.732Z,13.75
2019-04-16T17:52:43.503Z,13.70
2019-04-16T17:55:14.859Z,13.70
2019-04-16T17:57:55.315Z,13.70
2019-04-16T18:00:42.245Z,13.66
2019-04-16T18:03:22.482Z,13.62
2019-04-16T18:05:53.832Z,13.55
2019-04-16T18:08:41.659Z,13.52
2019-04-16T18:11:13.062Z,13.48
2019-04-16T18:13:44.164Z,13.48
2019-04-16T18:16:16.674Z,13.46
2019-04-16T18:19:00.541Z,13.44
2019-04-16T18:21:31.582Z,13.43
2019-04-16T18:24:08.475Z,13.39
2019-04-16T18:26:45.263Z,13.35
2019-04-16T18:29:21.860Z,13.34
2019-04-16T18:31:57.588Z,13.32
2019-04-16T18:34:34.886Z,13.28
2019-04-16T18:37:17.775Z,13.29
2019-04-16T18:39:54.867Z,13.28
2019-04-16T18:42:26.215Z,13.31
2019-04-16T18:45:13.689Z,13.34
2019-04-16T18:48:03.099Z,13.35
2019-04-16T18:50:26.054Z,13.30
2019-04-16T18:52:54.034Z,13.31
2019-04-16T18:55:23.483Z,13.30
2019-04-16T18:57:53.258Z,13.33
2019-04-16T19:00:40.778Z,13.38
2019-04-16T19:03:14.735Z,13.33
2019-04-16T19:05:41.569Z,13.27
2019-04-16T19:08:11.332Z,13.26
2019-04-16T19:10:40.855Z,13.27
2019-04-16T19:13:11.694Z,13.23
2019-04-16T19:15:41.491Z,13.17
2019-04-16T19:18:19.612Z,13.15
2019-04-16T19:20:42.111Z,13.12
2019-04-16T19:23:11.553Z,13.15
2019-04-16T19:25:41.006Z,13.19
2019-04-16T19:28:10.745Z,13.30
2019-04-16T19:30:40.555Z,13.25
2019-04-16T19:33:10.262Z,13.17
2019-04-16T19:35:39.711Z,13.10
2019-04-16T19:38:09.500Z,13.06
2019-04-16T19:40:38.943Z,13.04
2019-04-16T19:43:08.381Z,12.99
2019-04-16T19:45:40.680Z,12.96
2019-04-16T19:48:09.251Z,12.96
2019-04-16T19:50:38.710Z,12.97
2019-04-16T19:53:13.669Z,12.93
2019-04-16T19:55:39.591Z,12.92
2019-04-16T19:58:09.036Z,12.90
2019-04-16T20:00:38.805Z,12.92
2019-04-16T20:03:08.514Z,12.93
2019-04-16T20:05:37.978Z,12.93
2019-04-16T20:08:07.414Z,12.89
2019-04-16T20:10:37.127Z,12.91
2019-04-16T20:13:06.574Z,12.87
2019-04-16T20:15:36.039Z,12.83
2019-04-16T20:18:07.257Z,12.80
2019-04-16T20:20:37.123Z,12.78
2019-04-16T20:23:06.908Z,12.72
2019-04-16T20:25:36.620Z,12.70
2019-04-16T20:28:09.333Z,12.70
2019-04-16T20:30:37.976Z,12.70
2019-04-16T20:33:07.419Z,12.70
2019-04-16T20:35:36.878Z,12.62
2019-04-16T20:38:06.559Z,12.59
2019-04-16T20:40:36.012Z,12.54
2019-04-16T20:43:05.458Z,12.47
2019-04-16T20:45:34.913Z,12.45
2019-04-16T20:48:04.349Z,12.47
2019-04-16T20:50:33.808Z,12.44
2019-04-16T20:53:06.227Z,12.36
2019-04-16T20:55:34.768Z,12.40
2019-04-16T20:58:04.515Z,12.38
2019-04-16T21:00:35.565Z,12.32
2019-04-16T21:03:05.011Z,12.34
2019-04-16T21:05:35.796Z,12.31
2019-04-16T21:08:05.642Z,12.24
2019-04-16T21:10:36.315Z,12.19
2019-04-16T21:13:06.433Z,12.05
2019-04-16T21:15:36.222Z,12.01
2019-04-16T21:18:10.459Z,12.04
2019-04-16T21:20:37.092Z,12.01
2019-04-16T21:23:07.166Z,11.96
2019-04-16T21:25:37.119Z,11.93
2019-04-16T21:28:21.372Z,11.91
2019-04-16T21:30:52.451Z,11.86
2019-04-16T21:33:29.266Z,11.87
2019-04-16T21:36:04.246Z,11.79
2019-04-16T21:38:33.408Z,11.68
2019-04-16T21:41:03.129Z,11.66
2019-04-16T21:43:35.771Z,11.68
2019-04-16T21:46:04.088Z,11.66
2019-04-16T21:48:36.530Z,11.62
2019-04-16T21:51:06.347Z,11.53
2019-04-16T21:53:35.807Z,11.59
2019-04-16T21:56:08.191Z,11.57
2019-04-16T21:58:36.795Z,11.56
2019-04-16T22:01:10.928Z,11.47
2019-04-16T22:03:42.229Z,11.42
2019-04-16T22:06:11.901Z,11.38
2019-04-16T22:08:41.687Z,11.40
2019-04-16T22:11:11.808Z,11.42
2019-04-16T22:13:42.192Z,11.37
2019-04-16T22:16:11.937Z,11.35
2019-04-16T22:18:42.319Z,11.29
2019-04-16T22:21:11.985Z,11.26
2019-04-16T22:23:41.790Z,11.20
2019-04-16T22:26:11.492Z,11.23
2019-04-16T22:28:44.134Z,11.19
2019-04-16T22:31:12.123Z,11.13
2019-04-16T22:33:41.845Z,11.08
2019-04-16T22:36:11.555Z,11.06
2019-04-16T22:38:42.899Z,11.09
2019-04-16T22:41:27.606Z,11.11
2019-04-16T22:44:15.905Z,11.13
2019-04-16T22:46:53.119Z,11.09
2019-04-16T22:49:23.281Z,11.03
2019-04-16T22:51:53.141Z,11.00
2019-04-16T22:54:22.600Z,10.98
2019-04-16T22:56:53.971Z,10.95
2019-04-16T22:59:23.422Z,10.88
2019-04-16T23:01:53.461Z,10.87
2019-04-16T23:04:26.146Z,10.85
2019-04-16T23:06:54.857Z,10.84
2019-04-16T23:09:26.203Z,10.78
2019-04-16T23:11:56.428Z,10.80
2019-04-16T23:14:26.659Z,10.82
2019-04-16T23:16:56.171Z,10.84
2019-04-16T23:19:26.063Z,10.84
2019-04-16T23:21:55.876Z,10.87
2019-04-16T23:24:25.574Z,10.90
2019-04-16T23:26:55.020Z,10.95
2019-04-16T23:29:24.476Z,10.91
2019-04-16T23:31:56.128Z,10.88
2019-04-16T23:34:25.086Z,10.87
2019-04-16T23:36:54.604Z,10.88
2019-04-16T23:39:24.055Z,10.91
2019-04-16T23:41:53.783Z,10.92
2019-04-16T23:44:25.758Z,10.94
2019-04-16T23:47:10.178Z,10.96
2019-04-16T23:49:48.389Z,10.91
2019-04-16T23:52:22.193Z,10.92
2019-04-16T23:54:58.713Z,10.91
2019-04-16T23:57:46.215Z,10.92
